American Lake, Washington
Current Conditions -  °F | °C
As of 12:18 AM on Tuesday 27 Jan 2015 (Local Time) from KGRF Reporting Station
Haze Haze  
Wind Chill: 45°   Ceiling: Unl
Heat Index: 45°   Visibility: 4mi
Dew Point: 45°   Wind: 2mph
Humidity: 100%   Direction: 150°SSE
Pressure: 29.98"   Gusts: NA
Location:  47.1451°N, 122.578°W
Report Text: KGRF 270818Z AUTO 15002KT 4SM BR CLR 07/07 A2998 RMK AO2
Loading
Personal Weather Stations






























Interactive Weather Map New forecast layout! Learn more

10-Day Weather Forecast

Advertisements
Track Severe Weather on mobile